Ardsley, Pennsylvania
Current Conditions -  °F | °C
As of 4:55 PM on Saturday 25 Oct 2014 (Local Time) from KLOM Reporting Station
Clear Clear  
Wind Chill: 20°   Ceiling: Unl
Heat Index: 20°   Visibility: 10mi
Dew Point:   Wind: 9mph
Humidity: 43%   Direction: 250°WSW
Pressure: 29.7"   Gusts: 16mph
Location:  40.1012°N, 75.1722°W
Report Text: KLOM 252055Z AUTO 25008G14KT 10SM CLR 20/07 A2970 RMK AO1
Loading
Personal Weather Stations






























Interactive Weather Map
Tropical Storm Tracking
New forecast layout! Learn more

10-Day Weather Forecast

Advertisements
Track Severe Weather on mobile